Time;durP1;ratioP1;P1;durP2;ratioP2;P2;SDS_P1;SDS_P2;PMS_P1;PMS_P2;Temp;Humidity;BMP_temperature;BMP_pressure;BME280_temperature;BME280_humidity;BME280_pressure;Samples;Min_cycle;Max_cycle;Signal;HPM_P1;HPM_P2
2022/01/11 00:01:49;;;;;;;9.60;7.10;;;;;;;22.51;33.89;100926.95;104678;1305;73034;-83
2022/01/11 00:04:29;;;;;;;10.50;7.20;;;;;;;22.51;33.96;100933.96;104657;1305;74790;-82
2022/01/11 00:07:04;;;;;;;9.80;7.30;;;;;;;22.52;34.12;100935.73;104574;1305;61377;-84
2022/01/11 00:09:39;;;;;;;9.40;6.90;;;;;;;22.52;34.02;100939.46;104679;1305;61394;-83
2022/01/11 00:12:11;;;;;;;9.00;6.90;;;;;;;22.51;33.83;100942.73;104691;1305;72832;-82
2022/01/11 00:14:40;;;;;;;10.30;6.70;;;;;;;22.52;33.99;100941.31;104667;1305;75802;-82
2022/01/11 00:17:16;;;;;;;11.60;7.20;;;;;;;22.51;33.97;100949.03;104569;1305;61151;-82
2022/01/11 00:19:54;;;;;;;10.00;7.40;;;;;;;22.51;33.84;100956.05;104576;1306;61404;-82
2022/01/11 00:24:26;;;;;;;9.30;6.90;;;;;;;22.51;33.84;100959.05;104673;1306;73740;-82
2022/01/11 00:25:28;;;;;;;8.60;6.50;;;;;;;22.51;34.11;100961.77;104766;1306;75918;-83
2022/01/11 00:28:00;;;;;;;10.10;6.80;;;;;;;22.51;33.94;100958.54;104610;1306;61159;-84
2022/01/11 00:30:33;;;;;;;9.40;6.40;;;;;;;22.52;33.91;100966.02;104726;1306;61222;-83
2022/01/11 00:33:12;;;;;;;9.20;6.60;;;;;;;22.52;33.93;100964.42;104635;1306;73752;-84
2022/01/11 00:35:57;;;;;;;10.70;6.90;;;;;;;22.52;33.87;100962.79;104656;1306;75979;-84
2022/01/11 00:38:27;;;;;;;9.40;6.70;;;;;;;22.51;33.98;100956.39;104566;1306;61300;-83
2022/01/11 00:41:15;;;;;;;9.00;6.80;;;;;;;22.51;33.79;100957.45;104674;1306;61202;-83
2022/01/11 00:43:44;;;;;;;9.40;7.20;;;;;;;22.51;33.91;100954.43;104835;1306;73945;-83
2022/01/11 00:46:36;;;;;;;8.70;6.90;;;;;;;22.51;33.89;100962.16;104392;1312;73520;-81
2022/01/11 00:49:04;;;;;;;9.20;7.20;;;;;;;22.51;33.84;100969.30;104307;1312;61193;-83
2022/01/11 00:51:39;;;;;;;8.70;7.10;;;;;;;22.51;33.91;100961.78;104354;1312;61663;-85
2022/01/11 00:54:20;;;;;;;8.30;6.90;;;;;;;22.51;33.80;100963.55;104365;1312;73786;-83
2022/01/11 00:56:54;;;;;;;9.00;6.80;;;;;;;22.51;33.67;100960.91;104400;1310;75785;-84
2022/01/11 00:59:29;;;;;;;9.50;6.80;;;;;;;22.51;33.87;100971.28;104324;1312;61801;-82
2022/01/11 01:01:55;;;;;;;9.70;6.70;;;;;;;22.51;33.78;100977.37;104351;1312;61331;-87
2022/01/11 01:04:31;;;;;;;9.40;6.60;;;;;;;22.51;33.87;100972.31;104331;1312;72810;-81
2022/01/11 01:07:00;;;;;;;9.40;7.00;;;;;;;22.51;33.86;100973.23;104343;1312;75690;-83
2022/01/11 01:10:21;;;;;;;9.20;6.70;;;;;;;22.52;33.88;100971.39;104369;1312;61185;-85
2022/01/11 01:12:30;;;;;;;10.80;6.90;;;;;;;22.50;33.69;100969.17;104016;1313;61772;-85
2022/01/11 01:15:42;;;;;;;9.90;6.20;;;;;;;22.50;33.75;100976.70;104313;1312;71842;-85
2022/01/11 01:18:15;;;;;;;9.80;6.60;;;;;;;22.50;33.78;100977.80;104343;1312;75782;-82
2022/01/11 01:21:01;;;;;;;9.30;6.50;;;;;;;22.50;33.74;100977.40;104384;1312;61474;-84
2022/01/11 01:23:39;;;;;;;9.10;7.20;;;;;;;22.51;33.86;100985.67;103906;1314;61397;-84
2022/01/11 01:26:24;;;;;;;8.20;6.40;;;;;;;22.50;33.82;100983.52;104261;1313;73840;-86
2022/01/11 01:29:02;;;;;;;8.50;6.40;;;;;;;22.50;33.63;100996.09;104262;1313;75839;-82
2022/01/11 01:31:37;;;;;;;8.80;6.30;;;;;;;22.50;33.70;101001.66;104221;1313;61354;-84
2022/01/11 01:34:15;;;;;;;8.40;6.80;;;;;;;22.50;33.59;101000.96;104058;1313;224763;-82
2022/01/11 01:37:03;;;;;;;8.80;6.40;;;;;;;22.50;33.72;100999.36;104188;1313;72580;-82
2022/01/11 01:39:42;;;;;;;9.00;5.70;;;;;;;22.49;33.65;101000.86;104256;1313;74739;-84
2022/01/11 01:42:36;;;;;;;9.60;6.20;;;;;;;22.49;33.61;101003.00;104298;1313;61328;-82
2022/01/11 01:45:24;;;;;;;9.00;6.20;;;;;;;22.49;33.80;101008.55;104258;1313;61736;-81
2022/01/11 01:48:00;;;;;;;9.00;6.80;;;;;;;22.49;33.51;101011.21;104254;1313;72836;-84
2022/01/11 01:50:34;;;;;;;8.50;6.20;;;;;;;22.50;33.63;101015.30;104278;1313;74808;-86
2022/01/11 01:53:12;;;;;;;;;;;;;;;;;;;;;
2022/01/11 01:55:49;;;;;;;9.60;6.20;;;;;;;22.50;33.65;101014.61;104217;1313;61767;-83
2022/01/11 01:58:29;;;;;;;7.90;6.30;;;;;;;22.50;33.48;101013.54;104277;1313;72907;-84
2022/01/11 02:01:17;;;;;;;9.00;6.30;;;;;;;22.49;33.69;101016.95;104235;1313;75808;-88
2022/01/11 02:03:44;;;;;;;9.50;6.50;;;;;;;22.50;33.65;101019.98;104276;1313;61198;-84
2022/01/11 02:06:33;;;;;;;7.80;5.50;;;;;;;22.50;33.55;101018.70;104211;1313;61452;-85
2022/01/11 02:09:15;;;;;;;7.60;6.20;;;;;;;22.49;33.60;101022.89;104215;1314;73106;-83
2022/01/11 02:11:50;;;;;;;8.50;6.40;;;;;;;22.49;33.58;101028.44;104260;1313;75815;-85
2022/01/11 02:14:26;;;;;;;9.30;6.30;;;;;;;22.49;33.71;101037.23;104330;1313;60570;-86
2022/01/11 02:16:54;;;;;;;8.20;6.40;;;;;;;22.50;33.50;101038.27;104390;1313;61625;-79
2022/01/11 02:19:30;;;;;;;10.20;6.60;;;;;;;22.50;33.60;101036.45;104382;1313;73105;-82
2022/01/11 02:21:58;;;;;;;7.90;5.90;;;;;;;22.50;33.66;101040.73;104273;1313;74688;-87
2022/01/11 02:24:33;;;;;;;8.90;6.10;;;;;;;22.50;33.75;101040.73;104272;1313;61390;-88
2022/01/11 02:27:08;;;;;;;8.30;6.20;;;;;;;22.51;33.51;101041.55;104242;1313;61440;-85
2022/01/11 02:29:36;;;;;;;8.90;6.60;;;;;;;22.51;33.47;101044.80;104279;1313;72956;-81
2022/01/11 02:32:07;;;;;;;8.00;6.20;;;;;;;22.51;33.64;101047.00;104228;1313;76507;-82
2022/01/11 02:34:37;;;;;;;7.20;5.70;;;;;;;22.51;33.57;101044.48;104234;1313;61217;-81
2022/01/11 02:37:04;;;;;;;8.00;6.30;;;;;;;22.51;33.56;101048.27;104279;1312;61441;-82
2022/01/11 02:39:43;;;;;;;9.80;6.10;;;;;;;22.50;33.58;101042.91;104287;1313;72855;-82
2022/01/11 02:42:09;;;;;;;9.30;6.50;;;;;;;22.50;33.64;101048.46;104250;1313;75669;-84
2022/01/11 02:44:35;;;;;;;8.20;5.50;;;;;;;22.50;33.66;101051.91;104264;1313;61272;-85
2022/01/11 02:47:06;;;;;;;8.40;6.50;;;;;;;22.50;33.52;101050.29;104227;1313;61405;-86
2022/01/11 02:50:01;;;;;;;7.20;5.90;;;;;;;22.49;33.64;101054.45;104224;1313;72760;-82
2022/01/11 02:52:30;;;;;;;8.70;6.40;;;;;;;22.49;33.58;101060.54;104187;1314;76026;-82
2022/01/11 02:55:08;;;;;;;7.80;5.70;;;;;;;22.49;33.58;101059.65;104206;1313;61204;-82
2022/01/11 02:57:37;;;;;;;8.80;6.20;;;;;;;22.50;33.48;101058.89;104250;1313;61400;-82
2022/01/11 03:00:08;;;;;;;7.60;6.00;;;;;;;22.50;33.44;101063.76;104183;1313;72916;-83
2022/01/11 03:02:44;;;;;;;9.00;6.00;;;;;;;22.50;33.60;101063.20;104306;1313;75773;-83
2022/01/11 03:05:11;;;;;;;8.40;6.10;;;;;;;22.49;33.42;101068.10;104039;1313;61093;-82
2022/01/11 03:07:41;;;;;;;8.80;6.10;;;;;;;22.49;33.44;101073.48;104195;1313;61207;-86
2022/01/11 03:10:32;;;;;;;8.50;6.30;;;;;;;22.50;33.56;101080.25;104234;1313;73702;-88
2022/01/11 03:13:10;;;;;;;7.60;5.70;;;;;;;22.50;33.45;101081.50;104116;1316;73585;-87
2022/01/11 03:15:44;;;;;;;7.70;5.90;;;;;;;22.49;33.58;101088.02;104281;1313;61309;-83
2022/01/11 03:18:13;;;;;;;8.30;5.90;;;;;;;22.49;33.59;101092.16;104170;1313;61608;-83
2022/01/11 03:20:48;;;;;;;8.30;5.80;;;;;;;22.49;33.46;101099.69;104242;1314;73802;-83
2022/01/11 03:23:19;;;;;;;7.60;6.20;;;;;;;22.48;33.47;101109.39;104178;1313;75828;-83
2022/01/11 03:25:46;;;;;;;9.30;6.00;;;;;;;22.48;33.64;101108.71;104193;1313;60318;-86
2022/01/11 03:28:35;;;;;;;7.40;6.00;;;;;;;22.48;33.36;101113.18;104272;1313;61294;-83
2022/01/11 03:31:01;;;;;;;7.90;5.90;;;;;;;22.48;33.45;101117.83;104199;1313;74624;-83
2022/01/11 03:33:48;;;;;;;7.40;5.90;;;;;;;22.49;33.42;101127.67;104201;1313;76176;-83
2022/01/11 03:36:16;;;;;;;8.00;6.10;;;;;;;22.48;33.48;101124.84;104187;1313;61299;-86
2022/01/11 03:38:54;;;;;;;8.70;6.20;;;;;;;22.48;33.44;101128.78;104217;1313;61562;-82
2022/01/11 03:41:23;;;;;;;7.70;5.80;;;;;;;22.48;33.47;101128.62;104300;1313;62534;-83
2022/01/11 03:43:50;;;;;;;8.60;6.30;;;;;;;22.48;33.41;101125.73;104219;1312;74826;-86
2022/01/11 03:46:39;;;;;;;8.40;6.30;;;;;;;22.48;33.41;101124.46;104298;1313;61439;-83
2022/01/11 03:49:15;;;;;;;;;;;;;;;;;;;;;
2022/01/11 03:51:59;;;;;;;9.20;6.70;;;;;;;22.48;33.10;101133.66;104200;1313;72821;-86
2022/01/11 03:54:42;;;;;;;9.20;6.80;;;;;;;22.46;33.25;101143.44;104190;1313;73652;-82
2022/01/11 03:57:17;;;;;;;8.20;6.50;;;;;;;22.44;32.93;101141.42;104235;1313;61557;-83
2022/01/11 03:59:46;;;;;;;9.80;7.20;;;;;;;22.44;32.81;101147.52;104213;1313;61811;-82
2022/01/11 04:02:15;;;;;;;9.40;6.30;;;;;;;22.45;32.81;101151.80;104196;1313;73090;-85
2022/01/11 04:04:41;;;;;;;8.80;6.60;;;;;;;22.44;32.72;101157.20;104317;1313;74689;-85
2022/01/11 04:07:12;;;;;;;8.60;6.60;;;;;;;22.44;32.56;101159.58;104210;1313;61550;-82
2022/01/11 04:10:01;;;;;;;9.00;6.80;;;;;;;22.43;32.50;101165.87;104206;1313;61421;-85
2022/01/11 04:12:36;;;;;;;9.40;6.80;;;;;;;22.43;32.32;101168.94;104155;1313;72809;-86
2022/01/11 04:15:15;;;;;;;8.80;6.80;;;;;;;22.43;32.45;101167.14;104220;1313;75719;-82
2022/01/11 04:17:53;;;;;;;9.20;6.90;;;;;;;22.43;32.45;101170.73;104253;1313;61172;-82
2022/01/11 04:20:31;;;;;;;8.90;6.80;;;;;;;22.43;32.43;101175.02;104799;1305;61385;-84
2022/01/11 04:23:02;;;;;;;8.80;6.80;;;;;;;22.42;32.57;101180.46;104562;1305;72566;-83
2022/01/11 04:25:46;;;;;;;9.30;7.40;;;;;;;22.41;32.41;101187.33;104564;1305;75981;-83
2022/01/11 04:28:22;;;;;;;11.90;7.70;;;;;;;22.41;32.37;101184.48;104720;1305;61175;-86
2022/01/11 04:31:00;;;;;;;16.90;8.10;;;;;;;22.40;32.49;101188.33;104545;1306;61286;-84
2022/01/11 04:33:33;;;;;;;13.00;7.90;;;;;;;22.39;32.25;101189.51;104600;1305;72941;-88
2022/01/11 04:35:59;;;;;;;16.50;8.60;;;;;;;22.37;32.28;101195.56;104572;1305;75049;-84
2022/01/11 04:38:45;;;;;;;16.50;8.50;;;;;;;22.35;32.11;101204.98;104459;1309;61442;-83
2022/01/11 04:41:19;;;;;;;11.60;8.10;;;;;;;22.34;31.82;101208.87;104394;1310;61167;-80
2022/01/11 04:44:03;;;;;;;16.70;8.80;;;;;;;22.33;31.57;101216.12;104365;1311;72862;-85
2022/01/11 04:46:32;;;;;;;14.50;8.60;;;;;;;22.31;31.34;101211.39;104466;1309;75796;-84
2022/01/11 04:49:05;;;;;;;16.40;9.00;;;;;;;22.29;31.27;101214.54;104361;1310;61386;-82
2022/01/11 04:51:35;;;;;;;13.20;8.30;;;;;;;22.29;30.96;101209.89;104421;1309;61312;-82
2022/01/11 04:54:24;;;;;;;15.20;8.40;;;;;;;22.27;30.77;101215.75;104465;1309;71869;-83
2022/01/11 04:56:49;;;;;;;11.60;8.30;;;;;;;22.26;30.63;101213.46;104338;1311;77121;-81
2022/01/11 04:59:27;;;;;;;12.30;8.70;;;;;;;22.25;30.15;101210.35;104303;1309;61285;-83
2022/01/11 05:02:15;;;;;;;11.20;8.10;;;;;;;22.24;30.06;101215.77;104419;1309;61295;-81
2022/01/11 05:04:44;;;;;;;12.00;8.30;;;;;;;22.23;29.92;101221.21;104126;1312;71634;-84
2022/01/11 05:07:15;;;;;;;13.80;8.30;;;;;;;22.23;29.82;101228.55;104392;1310;75283;-82
2022/01/11 05:09:43;;;;;;;11.90;8.00;;;;;;;22.23;29.81;101234.84;104282;1310;62361;-84
2022/01/11 05:12:18;;;;;;;11.90;8.40;;;;;;;22.24;29.97;101235.89;104294;1310;61562;-82
2022/01/11 05:14:51;;;;;;;10.60;8.10;;;;;;;22.24;29.73;101240.70;104326;1311;72890;-82
2022/01/11 05:17:44;;;;;;;13.40;8.10;;;;;;;22.25;29.85;101245.15;104607;1306;73775;-79
2022/01/11 05:20:24;;;;;;;12.80;7.60;;;;;;;22.25;29.61;101247.30;104592;1305;61194;-81
2022/01/11 05:22:58;;;;;;;13.30;8.30;;;;;;;22.25;29.91;101251.04;104581;1305;61315;-81
2022/01/11 05:25:29;;;;;;;13.30;8.20;;;;;;;22.25;29.82;101254.95;104577;1305;73919;-78
2022/01/11 05:27:59;;;;;;;10.30;7.20;;;;;;;22.26;29.79;101257.45;104478;1305;74726;-81
2022/01/11 05:30:36;;;;;;;9.60;7.30;;;;;;;22.25;29.81;101260.72;104387;1305;61220;-81
2022/01/11 05:33:22;;;;;;;8.70;7.10;;;;;;;22.26;29.73;101262.11;104521;1305;61250;-81
2022/01/11 05:35:50;;;;;;;10.80;7.20;;;;;;;22.26;29.77;101266.72;104417;1305;61325;-82
2022/01/11 05:38:18;;;;;;;9.90;7.10;;;;;;;22.26;29.63;101264.39;104623;1305;74841;-79
2022/01/11 05:40:43;;;;;;;11.90;7.40;;;;;;;22.26;29.47;101265.88;104275;1305;61279;-80
2022/01/11 05:43:14;;;;;;;10.80;7.30;;;;;;;22.23;29.64;101261.75;104314;1306;62617;-81
2022/01/11 05:45:45;;;;;;;12.30;7.80;;;;;;;22.17;29.17;101275.80;104493;1305;73156;-81
2022/01/11 05:48:13;;;;;;;11.80;8.60;;;;;;;22.06;28.88;101278.48;104285;1305;75733;-79
2022/01/11 05:50:43;;;;;;;14.20;8.60;;;;;;;21.83;28.58;101273.80;104426;1305;62822;-81
2022/01/11 05:53:16;;;;;;;13.30;8.00;;;;;;;21.66;28.45;101285.14;104111;1306;61639;-81
2022/01/11 05:55:42;;;;;;;11.60;7.50;;;;;;;21.57;28.59;101291.23;103903;1305;72850;-80
2022/01/11 05:58:08;;;;;;;13.00;7.90;;;;;;;21.54;28.52;101288.07;103778;1306;61744;-80
2022/01/11 06:00:33;;;;;;;15.40;7.90;;;;;;;21.37;28.20;101302.02;103866;1305;61242;-79
2022/01/11 06:02:59;;;;;;;12.80;7.80;;;;;;;21.28;28.57;101297.05;103923;1305;63295;-79
2022/01/11 06:05:25;;;;;;;11.80;7.80;;;;;;;21.29;28.58;101306.09;103940;1305;61166;-79
2022/01/11 06:07:51;;;;;;;14.70;8.10;;;;;;;21.33;28.61;101302.65;103941;1305;61463;-80
2022/01/11 06:10:17;;;;;;;12.70;7.60;;;;;;;21.36;28.58;101306.35;104255;1306;74641;-81
2022/01/11 06:12:46;;;;;;;16.00;8.00;;;;;;;21.41;28.40;101306.21;103882;1307;61420;-80
2022/01/11 06:15:14;;;;;;;12.40;7.50;;;;;;;21.47;28.32;101303.56;104036;1305;61324;-80
2022/01/11 06:17:42;;;;;;;9.80;7.10;;;;;;;21.52;28.26;101306.64;103983;1305;74680;-81
2022/01/11 06:20:10;;;;;;;11.90;7.20;;;;;;;21.58;28.13;101310.86;103914;1307;73603;-81
2022/01/11 06:22:37;;;;;;;11.40;6.60;;;;;;;21.66;28.26;101316.31;104081;1305;61217;-80
2022/01/11 06:25:05;;;;;;;9.80;6.40;;;;;;;21.72;28.22;101315.71;104099;1304;61295;-79
2022/01/11 06:27:31;;;;;;;9.30;7.00;;;;;;;21.78;28.48;101315.86;104126;1305;73790;-80
2022/01/11 06:29:57;;;;;;;12.50;6.90;;;;;;;21.83;28.31;101335.08;104161;1305;75810;-79
2022/01/11 06:32:23;;;;;;;9.00;6.50;;;;;;;21.82;28.41;101333.89;104093;1305;61455;-79
2022/01/11 06:34:48;;;;;;;12.60;6.90;;;;;;;21.78;28.69;101340.58;104013;1305;61227;-79
2022/01/11 06:37:14;;;;;;;15.80;7.60;;;;;;;21.73;28.53;101340.71;103821;1305;61340;-79
2022/01/11 06:39:40;;;;;;;15.10;7.00;;;;;;;21.69;28.48;101345.14;103833;1305;61351;-80
2022/01/11 06:42:07;;;;;;;11.10;7.60;;;;;;;21.60;28.31;101352.67;103651;1308;76071;-80
2022/01/11 06:44:32;;;;;;;13.20;7.70;;;;;;;21.46;27.85;101353.73;104498;1305;61132;-79
2022/01/11 06:46:58;;;;;;;15.00;7.60;;;;;;;21.07;27.57;101352.81;103814;1306;61472;-80
2022/01/11 06:49:24;;;;;;;10.80;7.10;;;;;;;20.86;27.30;101358.34;103809;1304;61166;-81
2022/01/11 06:51:50;;;;;;;10.20;7.50;;;;;;;20.43;27.08;101363.06;103933;1304;61221;-80
2022/01/11 06:54:16;;;;;;;11.90;8.00;;;;;;;20.03;27.08;101357.89;103571;1308;61439;-79
2022/01/11 06:56:41;;;;;;;13.10;8.30;;;;;;;19.32;26.51;101361.49;103770;1305;61340;-79
2022/01/11 06:59:10;;;;;;;10.90;8.10;;;;;;;18.38;26.50;101366.35;103499;1308;62559;-81
2022/01/11 07:01:38;;;;;;;11.50;7.50;;;;;;;17.04;26.24;101383.91;103877;1305;72804;-84
2022/01/11 07:04:09;;;;;;;11.20;6.40;;;;;;;16.38;27.60;101390.16;103634;1305;75914;-81
2022/01/11 07:06:41;;;;;;;12.60;6.10;;;;;;;16.85;28.54;101380.70;103607;1308;61320;-81
2022/01/11 07:09:32;;;;;;;18.30;7.10;;;;;;;17.40;28.92;101382.13;103765;1305;61564;-82
2022/01/11 07:11:57;;;;;;;11.00;6.00;;;;;;;17.91;29.10;101379.20;103447;1312;72861;-81
2022/01/11 07:14:23;;;;;;;12.20;5.90;;;;;;;18.27;29.05;101389.41;103496;1312;61320;-81
2022/01/11 07:16:49;;;;;;;10.20;5.70;;;;;;;18.60;29.12;101389.38;103371;1312;62522;-80
2022/01/11 07:19:16;;;;;;;9.20;6.20;;;;;;;18.88;29.16;101389.39;103460;1314;61627;-80
2022/01/11 07:21:44;;;;;;;9.40;6.10;;;;;;;19.12;29.06;101389.32;103295;1312;61323;-82
2022/01/11 07:24:12;;;;;;;13.00;6.30;;;;;;;19.31;28.75;101399.03;103453;1312;76169;-81
2022/01/11 07:26:38;;;;;;;10.70;6.30;;;;;;;19.46;28.67;101390.54;103331;1312;61249;-80
2022/01/11 07:29:05;;;;;;;9.00;6.00;;;;;;;19.63;28.58;101410.14;103469;1312;61466;-80
2022/01/11 07:31:32;;;;;;;8.20;5.90;;;;;;;19.71;28.24;101411.31;103313;1312;74352;-81
2022/01/11 07:33:58;;;;;;;8.70;5.90;;;;;;;19.75;28.24;101416.45;103562;1312;61153;-82
2022/01/11 07:36:25;;;;;;;9.60;5.70;;;;;;;19.84;28.14;101418.98;103708;1312;61339;-81
2022/01/11 07:38:51;;;;;;;9.10;6.20;;;;;;;19.97;27.90;101417.25;103261;1314;61294;-81
2022/01/11 07:41:20;;;;;;;9.90;6.40;;;;;;;20.05;27.91;101424.04;103319;1312;61279;-81
2022/01/11 07:43:48;;;;;;;8.00;5.60;;;;;;;20.14;27.68;101430.34;103463;1313;75752;-81
2022/01/11 07:46:15;;;;;;;7.40;5.70;;;;;;;20.22;27.58;101433.27;103587;1312;61284;-81
2022/01/11 07:48:41;;;;;;;9.50;6.30;;;;;;;20.28;27.48;101429.73;103386;1308;61182;-80
2022/01/11 07:51:07;;;;;;;11.50;7.90;;;;;;;20.11;27.01;101436.24;103708;1307;61564;-81
2022/01/11 07:53:36;;;;;;;11.20;7.20;;;;;;;19.33;26.47;101423.35;103650;1306;61281;-82
2022/01/11 07:56:01;;;;;;;14.90;7.00;;;;;;;18.10;25.68;101431.66;103640;1307;61399;-79
2022/01/11 07:58:27;;;;;;;10.30;7.60;;;;;;;15.94;25.84;101435.56;103590;1307;61239;-80
2022/01/11 08:00:54;;;;;;;13.40;7.80;;;;;;;15.26;27.09;101439.18;103463;1308;61339;-80
2022/01/11 08:03:20;;;;;;;11.20;6.60;;;;;;;15.06;27.34;101447.00;103460;1308;61418;-80
2022/01/11 08:05:50;;;;;;;17.80;6.40;;;;;;;15.16;28.17;101447.02;103730;1306;61250;-80
2022/01/11 08:08:17;;;;;;;9.00;5.90;;;;;;;15.60;28.67;101437.79;103902;1306;61074;-79
2022/01/11 08:10:43;;;;;;;14.70;6.30;;;;;;;16.08;28.94;101444.13;103741;1308;71842;-79
2022/01/11 08:13:10;;;;;;;11.80;5.90;;;;;;;16.62;28.89;101442.45;103718;1308;61335;-81
2022/01/11 08:15:44;;;;;;;13.30;5.50;;;;;;;17.15;28.84;101441.47;103878;1306;61700;-79
2022/01/11 08:18:09;;;;;;;9.50;5.50;;;;;;;17.57;28.65;101440.10;103889;1309;61235;-80
2022/01/11 08:20:36;;;;;;;15.00;5.80;;;;;;;17.94;28.57;101441.92;103749;1307;61297;-80
2022/01/11 08:23:02;;;;;;;8.50;5.00;;;;;;;18.31;28.45;101447.83;103791;1308;61335;-80
2022/01/11 08:25:28;;;;;;;12.80;5.50;;;;;;;18.63;28.36;101447.30;103798;1306;61430;-80
2022/01/11 08:28:12;;;;;;;9.80;5.90;;;;;;;18.92;28.20;101458.52;103989;1306;61267;-79
2022/01/11 08:30:38;;;;;;;13.20;5.60;;;;;;;19.16;28.32;101469.95;103785;1308;72804;-80
2022/01/11 08:33:14;;;;;;;12.00;5.30;;;;;;;19.34;28.40;101465.97;103858;1308;61396;-80
2022/01/11 08:35:40;;;;;;;13.30;5.10;;;;;;;19.54;28.15;101468.52;104042;1308;61273;-80
2022/01/11 08:38:06;;;;;;;14.60;5.10;;;;;;;19.71;28.19;101469.14;103860;1307;61316;-80
2022/01/11 08:40:34;;;;;;;16.90;6.00;;;;;;;19.88;28.17;101467.38;103968;1308;61444;-80
2022/01/11 08:43:03;;;;;;;11.50;5.40;;;;;;;20.02;28.36;101471.05;103793;1308;77311;-79
2022/01/11 08:45:31;;;;;;;12.90;5.50;;;;;;;20.14;28.11;101470.71;103790;1306;61360;-80
2022/01/11 08:47:57;;;;;;;14.50;5.30;;;;;;;20.27;28.29;101471.99;103956;1307;61292;-79
2022/01/11 08:50:25;;;;;;;11.20;5.00;;;;;;;20.38;28.28;101476.55;103644;1308;61225;-78
2022/01/11 08:53:02;;;;;;;11.40;6.00;;;;;;;20.47;28.35;101467.96;103618;1308;74858;-79
2022/01/11 08:55:28;;;;;;;20.70;6.20;;;;;;;20.38;27.70;101467.63;103699;1309;61457;-80
2022/01/11 08:57:53;;;;;;;9.60;5.80;;;;;;;20.15;27.83;101466.06;103871;1306;61610;-80
2022/01/11 09:00:22;;;;;;;14.40;5.60;;;;;;;20.08;28.04;101469.27;103869;1306;61333;-79
2022/01/11 09:02:52;;;;;;;11.00;4.90;;;;;;;20.10;28.11;101467.23;104065;1308;74823;-80
2022/01/11 09:05:18;;;;;;;15.80;5.00;;;;;;;20.20;28.22;101470.96;103997;1306;61569;-81
2022/01/11 09:07:44;;;;;;;11.80;5.00;;;;;;;20.30;28.49;101478.61;103488;1308;61353;-80
2022/01/11 09:10:10;;;;;;;9.00;5.00;;;;;;;20.41;28.57;101474.95;103810;1307;60998;-80
2022/01/11 09:12:37;;;;;;;11.50;5.10;;;;;;;20.51;28.48;101471.52;103744;1308;60031;-81
2022/01/11 09:15:06;;;;;;;9.10;4.90;;;;;;;20.59;28.54;101470.31;103580;1306;61254;-80
2022/01/11 09:17:35;;;;;;;14.80;4.90;;;;;;;20.68;28.58;101468.04;103481;1308;62240;-80
2022/01/11 09:20:18;;;;;;;11.30;5.00;;;;;;;20.75;28.57;101464.75;103566;1308;74196;-82
2022/01/11 09:22:44;;;;;;;9.10;4.50;;;;;;;20.85;28.72;101465.77;103526;1308;74918;-82
2022/01/11 09:25:10;;;;;;;14.70;4.40;;;;;;;20.92;28.59;101466.94;103692;1307;61245;-80
2022/01/11 09:27:36;;;;;;;15.20;5.10;;;;;;;21.00;28.54;101463.11;103733;1308;61306;-80
2022/01/11 09:30:08;;;;;;;9.50;4.30;;;;;;;21.06;28.69;101465.23;103621;1307;73057;-81
2022/01/11 09:32:34;;;;;;;10.20;4.60;;;;;;;21.10;28.86;101458.17;104824;1306;75201;-80
2022/01/11 09:35:01;;;;;;;9.90;4.60;;;;;;;21.16;28.88;101452.13;105243;1307;60451;-81
2022/01/11 09:37:26;;;;;;;9.30;4.50;;;;;;;21.20;28.70;101448.63;104573;1306;61302;-81
2022/01/11 09:39:55;;;;;;;11.20;4.20;;;;;;;21.25;28.94;101450.98;103897;1306;61410;-80
2022/01/11 09:42:23;;;;;;;10.50;4.30;;;;;;;21.30;28.91;101453.20;103838;1308;74866;-80
2022/01/11 09:44:50;;;;;;;8.00;4.20;;;;;;;21.33;28.91;101456.23;103739;1308;61214;-80
2022/01/11 09:47:18;;;;;;;9.30;4.30;;;;;;;21.38;28.87;101461.34;103866;1306;61574;-80
2022/01/11 09:49:45;;;;;;;9.90;4.10;;;;;;;21.41;28.68;101458.78;103693;1305;72721;-81
2022/01/11 09:52:11;;;;;;;10.70;4.50;;;;;;;21.41;28.80;101465.98;103557;1307;61166;-80
2022/01/11 09:54:38;;;;;;;8.60;5.10;;;;;;;21.34;28.61;101462.30;103647;1305;64703;-79
2022/01/11 09:57:04;;;;;;;10.10;4.80;;;;;;;21.23;28.27;101464.20;105260;1305;61556;-79
2022/01/11 09:59:31;;;;;;;17.20;5.30;;;;;;;21.10;28.01;101462.66;105406;1305;59453;-80
2022/01/11 10:01:57;;;;;;;11.90;4.80;;;;;;;20.99;28.50;101467.09;105130;1308;60595;-79
2022/01/11 10:04:28;;;;;;;10.20;4.40;;;;;;;20.98;28.73;101477.35;105230;1305;59252;-79
2022/01/11 10:06:59;;;;;;;11.60;4.60;;;;;;;21.03;29.15;101475.45;105178;1306;60525;-79
2022/01/11 10:09:25;;;;;;;9.40;4.80;;;;;;;21.08;29.17;101483.02;105266;1307;72759;-78
2022/01/11 10:11:53;;;;;;;7.20;4.40;;;;;;;21.12;29.20;101482.95;104348;1306;74837;-79
2022/01/11 10:14:32;;;;;;;13.10;3.90;;;;;;;21.17;29.15;101485.71;103800;1306;61460;-81
2022/01/11 10:17:09;;;;;;;11.80;4.20;;;;;;;21.22;29.39;101494.53;104411;1308;61265;-80
2022/01/11 10:19:42;;;;;;;8.20;4.20;;;;;;;21.27;29.30;101497.27;104099;1305;72553;-80
2022/01/11 10:22:10;;;;;;;7.90;4.10;;;;;;;21.32;29.36;101504.31;103921;1308;74865;-79
2022/01/11 10:24:44;;;;;;;8.10;4.20;;;;;;;21.36;29.29;101502.45;103915;1308;61130;-80
2022/01/11 10:27:14;;;;;;;10.60;4.40;;;;;;;21.37;29.26;101503.60;104501;1305;63338;-80
2022/01/11 10:29:41;;;;;;;10.70;4.50;;;;;;;21.38;29.21;101501.09;104131;1305;73958;-79
2022/01/11 10:32:35;;;;;;;8.80;4.40;;;;;;;21.37;29.01;101488.60;104111;1304;75593;-80
2022/01/11 10:35:25;;;;;;;17.90;4.60;;;;;;;21.37;28.99;101494.16;103771;1306;62487;-82
2022/01/11 10:37:55;;;;;;;11.10;5.10;;;;;;;21.38;29.17;101499.27;103928;1305;61526;-82
2022/01/11 10:40:32;;;;;;;14.40;5.30;;;;;;;21.34;29.29;101504.02;104243;1304;72663;-80
2022/01/11 10:43:07;;;;;;;11.50;4.80;;;;;;;21.30;29.13;101497.98;103889;1305;76061;-80
2022/01/11 10:45:34;;;;;;;14.90;5.40;;;;;;;21.27;29.17;101499.92;103922;1306;61839;-80
2022/01/11 10:48:11;;;;;;;10.70;4.70;;;;;;;21.27;29.15;101500.99;104054;1305;61222;-80
2022/01/11 10:50:44;;;;;;;13.20;5.50;;;;;;;21.28;29.07;101506.11;103717;1303;74474;-81
2022/01/11 10:53:12;;;;;;;12.60;7.80;;;;;;;21.25;29.00;101498.65;103480;1306;75447;-81
2022/01/11 10:55:38;;;;;;;15.20;7.10;;;;;;;20.88;28.10;101504.77;105227;1305;61428;-80
2022/01/11 10:58:09;;;;;;;13.50;6.80;;;;;;;20.39;27.85;101507.92;105335;1305;59788;-80
2022/01/11 11:00:39;;;;;;;7.40;5.00;;;;;;;19.82;27.82;101512.17;105305;1305;73454;-80
2022/01/11 11:03:09;;;;;;;13.50;5.70;;;;;;;19.78;28.23;101508.77;105230;1305;75770;-79
2022/01/11 11:05:40;;;;;;;9.60;5.20;;;;;;;19.91;28.37;101511.52;105455;1303;60777;-79
2022/01/11 11:08:11;;;;;;;9.40;5.60;;;;;;;20.06;28.51;101505.35;105288;1305;61027;-80
2022/01/11 11:10:43;;;;;;;8.00;5.10;;;;;;;20.19;28.54;101504.25;105288;1306;72850;-80
2022/01/11 11:13:16;;;;;;;13.70;5.00;;;;;;;20.32;28.59;101505.15;105481;1303;74806;-79
2022/01/11 11:15:43;;;;;;;9.60;5.30;;;;;;;20.45;28.71;101506.52;105604;1303;60132;-80
2022/01/11 11:18:38;;;;;;;10.30;5.30;;;;;;;20.58;28.98;101509.50;105439;1305;60323;-80
2022/01/11 11:21:23;;;;;;;17.20;5.70;;;;;;;20.73;28.97;101504.22;104875;1312;74249;-81
2022/01/11 11:23:54;;;;;;;14.80;5.60;;;;;;;20.85;29.01;101508.18;104130;1309;74757;-81
2022/01/11 11:26:20;;;;;;;11.10;5.00;;;;;;;20.92;29.14;101510.05;103831;1310;61382;-82
2022/01/11 11:28:46;;;;;;;14.90;5.40;;;;;;;21.00;29.13;101515.86;103619;1311;62241;-81
2022/01/11 11:31:12;;;;;;;12.40;5.40;;;;;;;21.08;29.20;101519.52;103598;1311;61422;-81
2022/01/11 11:33:38;;;;;;;11.00;4.70;;;;;;;21.14;29.40;101521.88;103662;1310;61315;-82
2022/01/11 11:36:07;;;;;;;13.00;5.10;;;;;;;21.19;29.34;101525.13;103929;1312;61432;-80
2022/01/11 11:38:37;;;;;;;13.80;4.90;;;;;;;21.26;29.37;101531.52;104022;1313;62352;-80
2022/01/11 11:41:03;;;;;;;11.80;5.00;;;;;;;21.31;29.41;101530.31;103881;1311;72752;-80